Yellow Grass, Canada
Current Conditions -  °F | °C
As of 4:00 AM on Monday 20 Oct 2014 (Local Time) from CYQR Reporting Station
Clear Clear  
Wind Chill: 32°   Ceiling: Unl
Heat Index: 39°   Visibility: 15mi
Dew Point: 36°   Wind: 12mph
Humidity: 87%   Direction: 110°ESE
Pressure: 29.91"   Gusts: NA
Location:  49.82°N, 104.15°W
Report Text: CYQR 201000Z 11010KT 15SM SKC 04/02 A2991 RMK SLP141
Loading
Personal Weather Stations






























Interactive Weather Map
Tropical Storm Tracking
New forecast layout! Learn more

10-Day Weather Forecast

Advertisements
Track Severe Weather on mobile